Time;durP1;ratioP1;P1;durP2;ratioP2;P2;SDS_P1;SDS_P2;PMS_P1;PMS_P2;Temp;Humidity;BMP_temperature;BMP_pressure;BME280_temperature;BME280_humidity;BME280_pressure;Samples;Min_cycle;Max_cycle;Signal;HPM_P1;HPM_P2
2021/07/10 00:08:41;;;;;;;0.67;0.47;;;22.00;99.90;;;;;;20782098;28;20232;-68
2021/07/10 00:18:46;;;;;;;0.30;0.30;;;22.00;99.90;;;;;;20779279;28;20691;-68
2021/07/10 00:28:50;;;;;;;0.20;0.20;;;21.90;99.90;;;;;;20779683;28;20285;-67
2021/07/10 00:38:56;;;;;;;0.40;0.30;;;22.00;99.90;;;;;;20779377;28;20208;-68
2021/07/10 00:49:00;;;;;;;0.50;0.40;;;21.80;99.90;;;;;;20777744;28;20229;-67
2021/07/10 00:59:06;;;;;;;2.83;0.70;;;21.80;99.90;;;;;;20776508;28;20215;-67
2021/07/10 01:09:09;;;;;;;1.30;0.87;;;21.70;99.90;;;;;;20777259;28;20548;-66
2021/07/10 01:19:22;;;;;;;7.57;1.23;;;21.70;99.90;;;;;;20781453;28;20297;-67
2021/07/10 01:29:27;;;;;;;1.90;0.47;;;21.50;99.90;;;;;;20776139;28;20339;-65
2021/07/10 01:39:31;;;;;;;3.23;0.37;;;21.80;99.90;;;;;;20778050;28;20197;-67
2021/07/10 01:49:36;;;;;;;1.10;0.80;;;21.70;99.90;;;;;;20774481;28;20759;-67
2021/07/10 01:59:40;;;;;;;0.30;0.20;;;21.80;99.90;;;;;;20781054;28;20281;-67
2021/07/10 02:09:45;;;;;;;0.20;0.10;;;22.00;99.90;;;;;;20778432;28;20242;-67
2021/07/10 02:19:49;;;;;;;0.40;0.20;;;22.30;99.90;;;;;;20768429;28;20229;-68
2021/07/10 02:29:54;;;;;;;0.50;0.50;;;22.20;99.90;;;;;;20794261;28;20235;-69
2021/07/10 02:39:57;;;;;;;1.40;0.93;;;22.20;99.90;;;;;;20830593;28;20296;-68
2021/07/10 02:50:02;;;;;;;0.83;0.50;;;22.20;99.90;;;;;;20757396;28;20226;-69
2021/07/10 03:00:12;;;;;;;1.70;0.60;;;22.00;99.90;;;;;;20749145;28;20225;-69
2021/07/10 03:10:20;;;;;;;0.40;0.30;;;21.80;99.90;;;;;;20762897;28;20733;-69
2021/07/10 03:20:26;;;;;;;1.47;0.60;;;21.60;99.90;;;;;;20762676;28;20257;-68
2021/07/10 03:30:31;;;;;;;1.07;0.63;;;21.30;99.90;;;;;;20750314;28;20249;-69
2021/07/10 03:40:34;;;;;;;0.67;0.67;;;21.00;99.90;;;;;;20826799;28;20536;-67
2021/07/10 03:50:39;;;;;;;0.37;0.30;;;21.00;99.90;;;;;;20826189;28;20304;-68
2021/07/10 04:00:43;;;;;;;1.63;0.97;;;20.90;99.90;;;;;;20838049;22;20321;-69
2021/07/10 04:10:48;;;;;;;5.03;0.97;;;21.00;99.90;;;;;;20824151;28;20321;-68
2021/07/10 04:20:52;;;;;;;1.97;1.13;;;21.20;99.90;;;;;;20822071;28;20206;-68
2021/07/10 04:30:57;;;;;;;0.90;0.87;;;21.20;99.90;;;;;;20823413;28;20225;-68
2021/07/10 04:41:01;;;;;;;0.50;0.40;;;21.30;99.90;;;;;;20821973;28;20209;-68
2021/07/10 04:51:06;;;;;;;0.33;0.23;;;21.20;99.90;;;;;;20820999;28;20245;-68
2021/07/10 05:01:10;;;;;;;0.70;0.50;;;21.30;99.90;;;;;;20820493;28;20232;-68
2021/07/10 05:11:15;;;;;;;0.53;0.47;;;21.40;99.90;;;;;;20818145;28;20222;-68
2021/07/10 05:21:21;;;;;;;3.37;0.53;;;21.70;99.90;;;;;;20818934;28;20619;-68
2021/07/10 05:31:28;;;;;;;0.57;0.57;;;22.10;99.90;;;;;;20822950;28;20264;-68
2021/07/10 05:41:32;;;;;;;0.30;0.23;;;22.30;99.90;;;;;;20817547;28;20209;-69
2021/07/10 05:51:37;;;;;;;0.77;0.77;;;22.50;99.90;;;;;;20817604;28;20350;-68
2021/07/10 06:01:41;;;;;;;0.90;0.50;;;22.90;99.90;;;;;;20815591;28;20279;-69
2021/07/10 06:11:46;;;;;;;9.70;0.87;;;23.30;99.90;;;;;;20816680;28;20222;-70
2021/07/10 06:21:50;;;;;;;1.88;0.85;;;23.70;99.90;;;;;;20815082;28;20317;-70
2021/07/10 06:31:55;;;;;;;0.30;0.30;;;23.90;99.90;;;;;;20816056;28;20245;-69
2021/07/10 06:41:58;;;;;;;0.60;0.50;;;23.90;99.90;;;;;;20817561;28;20209;-69
2021/07/10 06:52:05;;;;;;;2.85;0.32;;;24.00;99.90;;;;;;20827864;28;20592;-68
2021/07/10 07:02:09;;;;;;;0.88;0.50;;;24.20;99.90;;;;;;20828418;28;20649;-69
2021/07/10 07:12:15;;;;;;;0.95;0.47;;;24.40;99.90;;;;;;20825700;28;20221;-68
2021/07/10 07:22:19;;;;;;;1.60;0.60;;;24.60;99.90;;;;;;20826836;28;20679;-68
2021/07/10 07:32:25;;;;;;;0.73;0.73;;;25.00;99.90;;;;;;20825252;28;20213;-70
2021/07/10 07:42:29;;;;;;;1.08;0.50;;;25.10;99.90;;;;;;20821589;28;20541;-68
2021/07/10 07:52:35;;;;;;;0.85;0.60;;;25.40;99.90;;;;;;20823544;28;20191;-68
2021/07/10 08:02:39;;;;;;;0.40;0.40;;;25.60;99.90;;;;;;20820851;28;20668;-69
2021/07/10 08:12:48;;;;;;;0.88;0.40;;;25.80;99.90;;;;;;20821342;28;20659;-70
2021/07/10 08:22:52;;;;;;;1.23;0.80;;;25.70;99.90;;;;;;20819247;28;20198;-68
2021/07/10 08:32:57;;;;;;;4.18;0.63;;;25.40;99.90;;;;;;20819955;28;20202;-69
2021/07/10 08:43:01;;;;;;;0.38;0.38;;;25.80;99.90;;;;;;20817310;28;20218;-69
2021/07/10 08:53:07;;;;;;;4.90;0.80;;;25.90;99.90;;;;;;20818181;28;20737;-70
2021/07/10 09:03:11;;;;;;;0.80;0.55;;;26.00;99.90;;;;;;20799473;28;20285;-68
2021/07/10 09:13:17;;;;;;;0.77;0.77;;;25.40;99.90;;;;;;20817280;28;20596;-66
2021/07/10 09:23:26;;;;;;;1.35;0.45;;;25.60;99.90;;;;;;20815862;28;20213;-69
2021/07/10 09:33:32;;;;;;;7.78;0.57;;;25.60;99.90;;;;;;20814403;28;20673;-68
2021/07/10 09:43:39;;;;;;;0.45;0.30;;;25.90;99.90;;;;;;20813948;28;20220;-70
2021/07/10 09:54:01;;;;;;;1.40;0.85;;;26.00;99.90;;;;;;20813678;28;20556;-74
2021/07/10 10:04:23;;;;;;;0.20;0.20;;;26.00;99.90;;;;;;20813295;28;20586;-69
2021/07/10 10:14:31;;;;;;;0.30;0.30;;;26.30;99.90;;;;;;20812937;28;20182;-69
2021/07/10 10:24:36;;;;;;;0.50;0.50;;;26.60;99.90;;;;;;20826062;28;20283;-72
2021/07/10 10:34:42;;;;;;;0.80;0.68;;;26.80;99.90;;;;;;20827840;28;20252;-70
2021/07/10 10:44:46;;;;;;;0.20;0.17;;;26.90;99.90;;;;;;20827969;28;20717;-70
2021/07/10 10:54:53;;;;;;;2.03;1.85;;;27.20;99.90;;;;;;20826319;28;20211;-69
2021/07/10 11:05:02;;;;;;;0.60;0.60;;;27.30;99.90;;;;;;20825705;28;20703;-70
2021/07/10 11:15:38;;;;;;;0.57;0.38;;;27.60;99.90;;;;;;20825364;28;20268;-69
2021/07/10 11:26:10;;;;;;;0.20;0.13;;;27.50;99.90;;;;;;20823230;28;20300;-70
2021/07/10 11:36:44;;;;;;;6.30;0.50;;;28.00;99.90;;;;;;20823178;28;20198;-74
2021/07/10 11:47:08;;;;;;;4.60;0.98;;;28.60;99.90;;;;;;20823681;28;20287;-70
2021/07/10 11:57:13;;;;;;;0.80;0.65;;;28.80;99.90;;;;;;20821555;28;20198;-74
2021/07/10 12:07:22;;;;;;;0.65;0.40;;;28.30;99.90;;;;;;20821278;28;20257;-71
2021/07/10 12:17:27;;;;;;;3.88;0.75;;;28.60;99.90;;;;;;20818469;28;20511;-68
2021/07/10 12:27:33;;;;;;;0.50;0.50;;;29.40;99.90;;;;;;20820708;28;20217;-71
2021/07/10 12:37:36;;;;;;;0.60;0.60;;;28.90;99.90;;;;;;20821534;28;20268;-71
2021/07/10 12:47:41;;;;;;;4.03;0.82;;;29.20;99.90;;;;;;20817486;28;20313;-71
2021/07/10 12:57:53;;;;;;;0.47;0.47;;;29.60;99.90;;;;;;20819877;28;20562;-68
2021/07/10 13:08:13;;;;;;;1.67;1.27;;;30.00;99.90;;;;;;20817759;28;20225;-69
2021/07/10 13:18:19;;;;;;;0.70;0.68;;;29.80;99.90;;;;;;20816705;28;20197;-68
2021/07/10 13:28:32;;;;;;;1.67;1.00;;;30.00;99.90;;;;;;20814405;28;20629;-67
2021/07/10 13:38:37;;;;;;;1.10;0.82;;;30.70;99.90;;;;;;20813170;28;20189;-71
2021/07/10 13:48:47;;;;;;;6.32;1.05;;;30.40;99.90;;;;;;20813718;28;20230;-69
2021/07/10 13:59:02;;;;;;;1.95;1.05;;;30.90;99.90;;;;;;20813134;28;20244;-72
2021/07/10 14:09:08;;;;;;;0.77;0.52;;;30.80;99.90;;;;;;20811869;28;20234;-69
2021/07/10 14:19:12;;;;;;;2.00;0.90;;;30.90;99.90;;;;;;20811483;28;20248;-68
2021/07/10 14:29:17;;;;;;;0.30;0.20;;;30.40;99.90;;;;;;20811024;28;20237;-69
2021/07/10 14:39:21;;;;;;;1.92;1.17;;;31.60;99.90;;;;;;20810946;28;20260;-69
2021/07/10 14:49:26;;;;;;;1.30;0.70;;;31.50;99.90;;;;;;20808434;28;20233;-71
2021/07/10 14:59:33;;;;;;;5.57;1.58;;;32.60;99.90;;;;;;20808343;28;20273;-70
2021/07/10 15:09:40;;;;;;;3.58;1.00;;;32.50;99.90;;;;;;20820291;28;20233;-69
2021/07/10 15:19:44;;;;;;;0.43;0.43;;;31.60;99.90;;;;;;20821845;28;20278;-70
2021/07/10 15:29:50;;;;;;;6.70;0.60;;;31.90;99.90;;;;;;20822158;28;20225;-68
2021/07/10 15:39:54;;;;;;;3.15;1.23;;;32.40;99.90;;;;;;20821117;28;20194;-67
2021/07/10 15:50:00;;;;;;;2.63;0.90;;;31.20;99.90;;;;;;20816315;28;20221;-68
2021/07/10 16:00:07;;;;;;;0.63;0.63;;;31.40;99.90;;;;;;20817072;28;20257;-68
2021/07/10 16:10:14;;;;;;;4.70;0.80;;;31.80;99.90;;;;;;20820445;28;20241;-68
2021/07/10 16:20:20;;;;;;;4.80;0.77;;;31.80;99.90;;;;;;20818365;28;20287;-68
2021/07/10 16:30:26;;;;;;;1.65;0.70;;;31.80;99.90;;;;;;20817841;28;20218;-69
2021/07/10 16:40:31;;;;;;;8.05;1.25;;;31.60;99.90;;;;;;20815584;28;20198;-69
2021/07/10 16:50:38;;;;;;;0.73;0.73;;;32.00;99.90;;;;;;20771968;28;20329;-69
2021/07/10 17:00:42;;;;;;;0.85;0.52;;;31.60;99.90;;;;;;20732958;28;20231;-69
2021/07/10 17:10:47;;;;;;;10.80;0.80;;;31.50;99.90;;;;;;20733185;28;20222;-68
2021/07/10 17:20:52;;;;;;;2.50;1.20;;;32.00;99.90;;;;;;20732042;28;20686;-70
2021/07/10 17:31:09;;;;;;;8.77;1.65;;;31.80;99.90;;;;;;20737535;28;20296;-69
2021/07/10 17:41:13;;;;;;;1.92;1.55;;;31.60;99.90;;;;;;20802641;28;20194;-70
2021/07/10 17:51:18;;;;;;;6.35;1.42;;;30.40;99.90;;;;;;20809721;28;20253;-69
2021/07/10 18:01:24;;;;;;;1.02;0.93;;;30.80;99.90;;;;;;20810807;28;20276;-69
2021/07/10 18:11:31;;;;;;;0.40;0.40;;;31.20;99.90;;;;;;20811966;28;20226;-70
2021/07/10 18:21:35;;;;;;;7.07;1.08;;;29.90;99.90;;;;;;20808434;28;20726;-71
2021/07/10 18:31:40;;;;;;;1.00;0.85;;;30.50;99.90;;;;;;20810521;28;20284;-68
2021/07/10 18:41:45;;;;;;;1.05;0.50;;;30.10;99.90;;;;;;20818059;28;20290;-69
2021/07/10 18:51:51;;;;;;;3.03;1.27;;;29.40;99.90;;;;;;20823409;28;20585;-69
2021/07/10 19:01:55;;;;;;;3.38;0.95;;;28.70;99.90;;;;;;20823944;28;20225;-68
2021/07/10 19:12:01;;;;;;;1.70;1.40;;;27.40;99.90;;;;;;20822038;28;20268;-71
2021/07/10 19:22:05;;;;;;;1.95;0.75;;;26.90;99.90;;;;;;20823336;28;20822;-70
2021/07/10 19:32:10;;;;;;;0.68;0.55;;;26.70;99.90;;;;;;20821713;28;20226;-71
2021/07/10 19:42:14;;;;;;;4.97;0.80;;;26.60;99.90;;;;;;20821768;28;20225;-71
2021/07/10 19:52:20;;;;;;;5.30;2.60;;;26.20;99.90;;;;;;20820738;28;20361;-70
2021/07/10 20:02:24;;;;;;;0.82;0.82;;;26.50;99.90;;;;;;20819624;28;20226;-70
2021/07/10 20:12:30;;;;;;;2.03;1.67;;;26.60;99.90;;;;;;20821278;28;20578;-70
2021/07/10 20:22:34;;;;;;;3.65;1.02;;;26.60;99.90;;;;;;20822303;28;20198;-70
2021/07/10 20:32:45;;;;;;;1.45;0.70;;;26.30;99.90;;;;;;20822551;28;20558;-70
2021/07/10 20:42:49;;;;;;;0.98;0.88;;;25.80;99.90;;;;;;20821914;28;20610;-69
2021/07/10 20:52:55;;;;;;;5.20;1.13;;;25.60;99.90;;;;;;20820224;28;20222;-71
2021/07/10 21:03:00;;;;;;;0.50;0.50;;;25.50;99.90;;;;;;20794945;28;20224;-70
2021/07/10 21:13:05;;;;;;;1.00;0.80;;;25.20;99.90;;;;;;20814985;28;20352;-70
2021/07/10 21:23:11;;;;;;;1.55;1.45;;;25.00;99.90;;;;;;20815561;28;20189;-69
2021/07/10 21:33:16;;;;;;;1.40;1.10;;;24.70;99.90;;;;;;20814510;28;20228;-69
2021/07/10 21:43:20;;;;;;;4.32;1.40;;;24.60;99.90;;;;;;20815080;28;20224;-69
2021/07/10 21:53:25;;;;;;;5.43;1.02;;;24.50;99.90;;;;;;20797851;28;20225;-69
2021/07/10 22:03:30;;;;;;;0.90;0.60;;;24.30;99.90;;;;;;20813866;28;20564;-71
2021/07/10 22:13:35;;;;;;;0.40;0.40;;;24.10;99.90;;;;;;20816133;28;20228;-70
2021/07/10 22:23:39;;;;;;;3.95;1.15;;;24.00;99.90;;;;;;20828864;28;20546;-69
2021/07/10 22:33:44;;;;;;;0.70;0.50;;;24.10;99.90;;;;;;20829341;28;20221;-69
2021/07/10 22:43:48;;;;;;;1.13;0.63;;;23.90;99.90;;;;;;20827656;28;20206;-69
2021/07/10 22:53:54;;;;;;;0.70;0.50;;;23.90;99.90;;;;;;20828393;28;20214;-70
2021/07/10 23:03:58;;;;;;;0.55;0.47;;;23.70;99.90;;;;;;20826503;28;20268;-69
2021/07/10 23:14:03;;;;;;;1.05;0.77;;;23.80;99.90;;;;;;20826638;28;20695;-69
2021/07/10 23:24:07;;;;;;;4.53;0.93;;;23.90;99.90;;;;;;20825202;28;20873;-68
2021/07/10 23:34:12;;;;;;;0.87;0.50;;;23.60;99.90;;;;;;20824919;28;20229;-69
2021/07/10 23:44:17;;;;;;;1.07;0.70;;;23.50;99.90;;;;;;20806454;28;20229;-69
2021/07/10 23:54:23;;;;;;;9.10;0.60;;;23.60;99.90;;;;;;20825534;28;20222;-71
